createdAt,value
2023-05-20T00:01:05.196Z,6.10
2023-05-20T00:03:32.637Z,6.88
2023-05-20T00:05:59.989Z,5.55
2023-05-20T00:08:27.068Z,5.45
2023-05-20T00:10:54.138Z,5.72
2023-05-20T00:13:21.315Z,5.90
2023-05-20T00:15:48.432Z,4.90
2023-05-20T00:18:17.326Z,5.47
2023-05-20T00:20:44.392Z,3.80
2023-05-20T00:23:14.391Z,2.95
2023-05-20T00:25:41.504Z,2.83
2023-05-20T00:28:08.547Z,2.15
2023-05-20T00:30:35.778Z,2.05
2023-05-20T00:33:02.978Z,1.80
2023-05-20T00:35:30.173Z,1.85
2023-05-20T00:37:57.237Z,1.70
2023-05-20T00:40:25.383Z,1.42
2023-05-20T00:42:52.968Z,1.80
2023-05-20T00:45:20.081Z,2.00
2023-05-20T00:47:47.550Z,1.50
2023-05-20T00:50:15.397Z,1.45
2023-05-20T00:52:45.412Z,1.50
2023-05-20T00:55:12.785Z,1.50
2023-05-20T00:57:41.039Z,1.85
2023-05-20T01:00:46.168Z,1.60
2023-05-20T01:03:26.234Z,1.40
2023-05-20T01:06:03.044Z,1.98
2023-05-20T01:08:47.592Z,1.70
2023-05-20T01:12:02.686Z,1.30
2023-05-20T01:14:51.276Z,1.70
2023-05-20T01:17:25.171Z,1.60
2023-05-20T01:20:10.551Z,1.65
2023-05-20T01:23:01.758Z,1.60
2023-05-20T01:25:39.278Z,1.42
2023-05-20T01:28:18.333Z,1.40
2023-05-20T01:31:00.405Z,1.23
2023-05-20T01:33:33.713Z,1.33
2023-05-20T01:36:09.619Z,1.30
2023-05-20T01:38:54.745Z,1.55
2023-05-20T01:41:35.431Z,1.42
2023-05-20T01:44:10.742Z,1.10
2023-05-20T01:46:45.188Z,0.80
2023-05-20T01:49:21.437Z,1.10
2023-05-20T01:52:01.126Z,1.30
2023-05-20T01:54:41.342Z,1.20
2023-05-20T01:57:18.980Z,1.30
2023-05-20T02:03:12.781Z,1.77
2023-05-20T02:05:39.927Z,1.60
2023-05-20T02:08:07.508Z,1.80
2023-05-20T02:10:34.605Z,1.75
2023-05-20T02:13:04.217Z,1.70
2023-05-20T02:15:35.186Z,1.20
2023-05-20T02:18:05.790Z,1.50
2023-05-20T02:20:36.475Z,1.83
2023-05-20T02:23:06.078Z,1.80
2023-05-20T02:25:35.712Z,1.63
2023-05-20T02:28:06.159Z,1.63
2023-05-20T02:30:36.001Z,1.40
2023-05-20T02:33:03.354Z,1.42
2023-05-20T02:35:30.861Z,1.77
2023-05-20T02:37:58.022Z,1.17
2023-05-20T02:40:28.044Z,1.67
2023-05-20T02:42:55.149Z,1.33
2023-05-20T02:45:22.391Z,1.50
2023-05-20T02:47:49.795Z,1.40
2023-05-20T02:50:18.429Z,1.60
2023-05-20T02:52:45.887Z,1.60
2023-05-20T02:55:13.425Z,1.35
2023-05-20T02:57:40.734Z,1.58
2023-05-20T03:00:16.681Z,1.52
2023-05-20T03:02:46.801Z,1.40
2023-05-20T03:05:14.763Z,1.35
2023-05-20T03:07:41.938Z,2.05
2023-05-20T03:10:09.730Z,1.70
2023-05-20T03:12:39.233Z,1.55
2023-05-20T03:15:11.043Z,1.30
2023-05-20T03:17:38.369Z,1.58
2023-05-20T03:20:07.513Z,1.50
2023-05-20T03:22:40.376Z,1.50
2023-05-20T03:25:07.960Z,1.80
2023-05-20T03:27:38.324Z,1.63
2023-05-20T03:30:06.579Z,1.60
2023-05-20T03:32:33.725Z,2.13
2023-05-20T03:35:01.242Z,1.67
2023-05-20T03:37:28.301Z,2.03
2023-05-20T03:39:55.785Z,2.03
2023-05-20T03:42:22.962Z,1.83
2023-05-20T03:44:51.036Z,1.95
2023-05-20T03:47:19.027Z,2.03
2023-05-20T03:49:46.445Z,1.77
2023-05-20T03:52:14.604Z,2.17
2023-05-20T03:54:41.887Z,2.55
2023-05-20T03:57:13.949Z,1.95
2023-05-20T03:59:41.330Z,1.67
2023-05-20T04:02:23.516Z,1.50
2023-05-20T04:04:53.196Z,1.58
2023-05-20T04:07:20.969Z,1.55
2023-05-20T04:09:48.127Z,1.42
2023-05-20T04:12:15.454Z,1.42
2023-05-20T04:14:42.561Z,1.40
2023-05-20T04:17:10.772Z,1.80
2023-05-20T04:19:38.471Z,1.65
2023-05-20T04:22:08.050Z,1.65
2023-05-20T04:24:35.344Z,1.60
2023-05-20T04:27:02.490Z,1.77
2023-05-20T04:29:30.286Z,1.77
2023-05-20T04:31:58.973Z,1.70
2023-05-20T04:34:27.093Z,1.80
2023-05-20T04:36:54.740Z,1.73
2023-05-20T04:39:21.981Z,1.80
2023-05-20T04:41:54.989Z,1.55
2023-05-20T04:44:24.900Z,1.80
2023-05-20T04:46:52.453Z,1.63
2023-05-20T04:49:20.010Z,1.90
2023-05-20T04:51:50.278Z,1.80
2023-05-20T04:54:21.321Z,2.00
2023-05-20T04:56:51.277Z,2.00
2023-05-20T04:59:21.287Z,2.20
2023-05-20T05:01:48.519Z,2.20
2023-05-20T05:04:15.926Z,2.42
2023-05-20T05:06:43.153Z,2.08
2023-05-20T05:09:10.811Z,2.30
2023-05-20T05:11:41.161Z,2.13
2023-05-20T05:14:08.801Z,2.53
2023-05-20T05:16:36.604Z,2.40
2023-05-20T05:19:03.824Z,2.67
2023-05-20T05:21:34.462Z,2.10
2023-05-20T05:24:01.899Z,1.80
2023-05-20T05:26:29.195Z,2.05
2023-05-20T05:28:56.850Z,2.10
2023-05-20T05:31:24.093Z,1.90
2023-05-20T05:33:51.440Z,2.20
2023-05-20T05:36:18.703Z,2.10
2023-05-20T05:38:46.139Z,2.00
2023-05-20T05:41:13.743Z,1.60
2023-05-20T05:43:41.104Z,2.03
2023-05-20T05:46:09.870Z,2.17
2023-05-20T05:48:38.981Z,1.98
2023-05-20T05:51:06.192Z,2.00
2023-05-20T05:53:34.009Z,1.90
2023-05-20T05:56:04.185Z,2.10
2023-05-20T05:58:31.404Z,1.88
2023-05-20T06:00:58.934Z,1.77
2023-05-20T06:03:26.323Z,1.90
2023-05-20T06:05:56.100Z,2.00
2023-05-20T06:08:23.163Z,1.80
2023-05-20T06:10:50.908Z,2.00
2023-05-20T06:13:18.677Z,2.10
2023-05-20T06:15:46.444Z,2.35
2023-05-20T06:18:13.714Z,2.22
2023-05-20T06:20:41.309Z,2.40
2023-05-20T06:23:08.448Z,2.63
2023-05-20T06:25:44.171Z,2.15
2023-05-20T06:28:12.841Z,1.80
2023-05-20T06:30:40.066Z,2.00
2023-05-20T06:33:07.377Z,2.03
2023-05-20T06:35:35.926Z,2.67
2023-05-20T06:38:05.151Z,2.38
2023-05-20T06:40:32.294Z,3.05
2023-05-20T06:42:59.593Z,2.45
2023-05-20T06:45:46.793Z,2.50
2023-05-20T06:48:28.441Z,2.13
2023-05-20T06:51:00.568Z,2.35
2023-05-20T06:53:36.379Z,2.65
2023-05-20T06:56:04.693Z,2.50
2023-05-20T06:58:33.835Z,2.13
2023-05-20T07:01:04.599Z,2.63
2023-05-20T07:03:35.957Z,2.83
2023-05-20T07:06:08.261Z,2.20
2023-05-20T07:08:35.580Z,2.53
2023-05-20T07:11:05.032Z,2.92
2023-05-20T07:13:36.051Z,2.60
2023-05-20T07:16:09.925Z,2.60
2023-05-20T07:18:45.138Z,2.58
2023-05-20T07:21:15.135Z,2.40
2023-05-20T07:24:28.510Z,2.70
2023-05-20T07:27:01.769Z,3.20
2023-05-20T07:29:29.138Z,3.13
2023-05-20T07:31:59.126Z,2.30
2023-05-20T07:34:27.050Z,3.10
2023-05-20T07:37:02.012Z,3.30
2023-05-20T07:39:32.219Z,2.80
2023-05-20T07:41:59.626Z,2.88
2023-05-20T07:44:34.929Z,2.45
2023-05-20T07:47:14.845Z,3.17
2023-05-20T07:49:53.082Z,3.10
2023-05-20T07:52:22.896Z,2.90
2023-05-20T07:54:51.624Z,3.00
2023-05-20T07:57:19.586Z,3.20
2023-05-20T07:59:50.181Z,3.25
2023-05-20T08:02:18.013Z,3.00
2023-05-20T08:04:47.004Z,3.10
2023-05-20T08:07:17.231Z,2.42
2023-05-20T08:09:52.314Z,2.92
2023-05-20T08:12:21.607Z,3.08
2023-05-20T08:14:53.160Z,2.70
2023-05-20T08:17:22.107Z,3.10
2023-05-20T08:19:49.382Z,2.70
2023-05-20T08:22:16.852Z,3.85
2023-05-20T08:24:48.384Z,2.92
2023-05-20T08:27:20.434Z,3.03
2023-05-20T08:29:47.833Z,3.10
2023-05-20T08:32:15.491Z,2.97
2023-05-20T08:34:52.532Z,3.30
2023-05-20T08:37:19.694Z,2.97
2023-05-20T08:39:49.405Z,3.00
2023-05-20T08:42:28.026Z,2.95
2023-05-20T08:44:58.724Z,3.13
2023-05-20T08:47:27.292Z,3.20
2023-05-20T08:49:54.590Z,2.92
2023-05-20T08:52:27.807Z,2.78
2023-05-20T08:54:58.640Z,3.55
2023-05-20T08:57:29.270Z,3.42
2023-05-20T08:59:57.587Z,3.00
2023-05-20T09:02:24.681Z,2.72
2023-05-20T09:04:52.643Z,3.00
2023-05-20T09:07:29.435Z,2.60
2023-05-20T09:09:58.174Z,2.58
2023-05-20T09:12:25.506Z,3.10
2023-05-20T09:14:52.586Z,3.17
2023-05-20T09:17:22.292Z,2.70
2023-05-20T09:19:53.789Z,2.67
2023-05-20T09:22:25.733Z,3.15
2023-05-20T09:24:53.192Z,2.47
2023-05-20T09:27:24.968Z,2.20
2023-05-20T09:29:52.352Z,2.05
2023-05-20T09:32:24.223Z,2.00
2023-05-20T09:34:54.746Z,2.90
2023-05-20T09:37:27.625Z,3.00
2023-05-20T09:40:10.337Z,3.25
2023-05-20T09:42:44.577Z,2.90
2023-05-20T09:45:11.806Z,2.70
2023-05-20T09:47:42.588Z,3.17
2023-05-20T09:50:10.585Z,2.67
2023-05-20T09:52:39.102Z,3.03
2023-05-20T09:55:07.848Z,3.38
2023-05-20T09:57:35.906Z,4.38
2023-05-20T10:00:08.979Z,4.07
2023-05-20T10:02:56.863Z,3.38
2023-05-20T10:05:29.793Z,3.63
2023-05-20T10:08:33.013Z,3.60
2023-05-20T10:11:36.875Z,3.10
2023-05-20T10:14:29.212Z,3.50
2023-05-20T10:17:20.704Z,4.13
2023-05-20T10:19:50.065Z,4.22
2023-05-20T10:22:31.897Z,3.88
2023-05-20T10:25:00.742Z,3.28
2023-05-20T10:27:28.072Z,3.53
2023-05-20T10:30:00.883Z,3.08
2023-05-20T10:32:32.556Z,3.20
2023-05-20T10:35:02.040Z,3.95
2023-05-20T10:37:33.257Z,3.10
2023-05-20T10:40:06.130Z,3.47
2023-05-20T10:42:33.523Z,2.75
2023-05-20T10:45:00.752Z,3.03
2023-05-20T10:47:27.974Z,2.67
2023-05-20T10:49:55.784Z,2.80
2023-05-20T10:52:24.630Z,3.58
2023-05-20T10:54:56.138Z,3.35
2023-05-20T10:57:24.460Z,3.10
2023-05-20T10:59:51.893Z,3.45
2023-05-20T11:02:20.333Z,2.92
2023-05-20T11:04:48.036Z,3.30
2023-05-20T11:07:29.403Z,3.35
2023-05-20T11:09:59.428Z,3.15
2023-05-20T11:12:35.617Z,2.97
2023-05-20T11:15:03.832Z,2.70
2023-05-20T11:17:31.264Z,3.05
2023-05-20T11:20:01.146Z,2.42
2023-05-20T11:22:28.506Z,2.90
2023-05-20T11:24:55.633Z,2.42
2023-05-20T11:27:23.050Z,2.67
2023-05-20T11:29:51.249Z,3.00
2023-05-20T11:32:21.674Z,2.75
2023-05-20T11:34:52.358Z,3.35
2023-05-20T11:37:20.323Z,2.92
2023-05-20T11:39:47.563Z,3.35
2023-05-20T11:42:17.886Z,3.13
2023-05-20T11:44:45.499Z,3.05
2023-05-20T11:47:12.588Z,3.63
2023-05-20T11:49:40.759Z,3.13
2023-05-20T11:52:09.960Z,3.88
2023-05-20T11:54:37.392Z,3.53
2023-05-20T11:57:06.886Z,3.40
2023-05-20T11:59:34.865Z,3.53
2023-05-20T12:02:01.990Z,3.50
2023-05-20T12:04:29.617Z,3.70
2023-05-20T12:06:56.985Z,3.53
2023-05-20T12:09:24.880Z,4.28
2023-05-20T12:11:52.044Z,3.92
2023-05-20T12:14:19.587Z,4.03
2023-05-20T12:16:48.589Z,4.93
2023-05-20T12:19:21.257Z,4.10
2023-05-20T12:21:50.910Z,3.88
2023-05-20T12:24:19.885Z,3.53
2023-05-20T12:26:47.120Z,4.07
2023-05-20T12:29:14.356Z,4.40
2023-05-20T12:31:41.605Z,3.65
2023-05-20T12:34:08.816Z,3.45
2023-05-20T12:36:35.893Z,3.25
2023-05-20T12:39:03.378Z,3.72
2023-05-20T12:41:33.853Z,3.67
2023-05-20T12:44:01.232Z,4.70
2023-05-20T12:46:28.330Z,5.07
2023-05-20T12:48:56.089Z,5.88
2023-05-20T12:51:23.301Z,3.53
2023-05-20T12:53:50.470Z,4.90
2023-05-20T12:56:18.061Z,5.30
2023-05-20T12:58:46.324Z,4.75
2023-05-20T13:01:13.526Z,4.28
2023-05-20T13:03:40.791Z,3.50
2023-05-20T13:06:11.112Z,3.22
2023-05-20T13:08:38.301Z,4.00
2023-05-20T13:11:05.479Z,3.78
2023-05-20T13:13:32.741Z,4.10
2023-05-20T13:15:59.877Z,5.13
2023-05-20T13:18:27.372Z,4.65
2023-05-20T13:20:57.330Z,4.70
2023-05-20T13:23:27.227Z,4.90
2023-05-20T13:25:54.595Z,4.55
2023-05-20T13:28:22.312Z,4.43
2023-05-20T13:30:50.425Z,5.15
2023-05-20T13:33:17.484Z,4.15
2023-05-20T13:35:44.673Z,4.40
2023-05-20T13:38:12.500Z,4.75
2023-05-20T13:40:39.615Z,3.83
2023-05-20T13:43:06.712Z,4.43
2023-05-20T13:45:33.883Z,4.85
2023-05-20T13:48:01.097Z,4.35
2023-05-20T13:50:28.215Z,4.55
2023-05-20T13:52:55.516Z,4.00
2023-05-20T13:55:24.707Z,4.35
2023-05-20T13:57:58.420Z,4.55
2023-05-20T14:00:25.741Z,4.75
2023-05-20T14:02:56.648Z,4.20
2023-05-20T14:05:25.064Z,3.60
2023-05-20T14:07:52.241Z,4.03
2023-05-20T14:10:22.118Z,3.95
2023-05-20T14:12:50.012Z,4.03
2023-05-20T14:15:17.216Z,4.05
2023-05-20T14:17:44.837Z,4.10
2023-05-20T14:20:12.623Z,4.20
2023-05-20T14:22:39.743Z,4.82
2023-05-20T14:25:07.437Z,4.88
2023-05-20T14:27:34.878Z,5.35
2023-05-20T14:30:02.031Z,4.95
2023-05-20T14:32:29.628Z,5.20
2023-05-20T14:34:56.816Z,4.32
2023-05-20T14:37:24.074Z,5.13
2023-05-20T14:39:51.245Z,5.63
2023-05-20T14:42:23.727Z,4.93
2023-05-20T14:44:54.758Z,4.60
2023-05-20T14:47:22.687Z,4.10
2023-05-20T14:49:56.396Z,4.35
2023-05-20T14:52:44.276Z,4.32
2023-05-20T14:55:20.802Z,4.38
2023-05-20T14:57:53.976Z,4.50
2023-05-20T15:00:36.316Z,5.20
2023-05-20T15:03:11.256Z,5.03
2023-05-20T15:05:44.576Z,4.60
2023-05-20T15:08:18.323Z,4.75
2023-05-20T15:11:05.918Z,4.70
2023-05-20T15:13:57.566Z,4.50
2023-05-20T15:16:28.145Z,4.38
2023-05-20T15:18:58.191Z,4.53
2023-05-20T15:21:31.822Z,4.00
2023-05-20T15:26:35.907Z,4.32
2023-05-20T15:29:05.368Z,4.32
2023-05-20T15:31:37.169Z,3.47
2023-05-20T15:34:10.128Z,3.70
2023-05-20T15:36:40.432Z,3.67
2023-05-20T15:39:13.819Z,4.03
2023-05-20T15:41:42.531Z,4.50
2023-05-20T15:44:09.799Z,5.25
2023-05-20T15:46:44.153Z,4.85
2023-05-20T15:49:12.820Z,3.70
2023-05-20T15:51:41.126Z,3.85
2023-05-20T15:54:14.972Z,3.60
2023-05-20T15:56:42.090Z,4.25
2023-05-20T15:59:09.288Z,3.92
2023-05-20T16:01:42.352Z,3.90
2023-05-20T16:04:18.073Z,3.97
2023-05-20T16:09:26.597Z,3.63
2023-05-20T16:11:56.252Z,3.10
2023-05-20T16:17:04.505Z,3.38
2023-05-20T16:19:34.109Z,3.58
2023-05-20T16:22:01.693Z,3.30
2023-05-20T16:24:28.778Z,3.50
2023-05-20T16:26:56.349Z,3.42
2023-05-20T16:29:25.552Z,3.65
2023-05-20T16:31:53.193Z,3.50
2023-05-20T16:34:20.489Z,2.88
2023-05-20T16:36:47.764Z,3.40
2023-05-20T16:39:16.086Z,2.58
2023-05-20T16:41:43.661Z,2.88
2023-05-20T16:44:21.333Z,2.28
2023-05-20T16:46:48.532Z,2.50
2023-05-20T16:49:17.982Z,2.92
2023-05-20T16:51:45.299Z,2.30
2023-05-20T16:54:12.496Z,3.17
2023-05-20T16:56:39.726Z,2.50
2023-05-20T16:59:06.981Z,2.78
2023-05-20T17:01:34.321Z,2.70
2023-05-20T17:04:01.617Z,3.38
2023-05-20T17:06:28.938Z,2.35
2023-05-20T17:08:59.229Z,2.10
2023-05-20T17:11:31.529Z,2.47
2023-05-20T17:13:59.421Z,2.78
2023-05-20T17:16:29.452Z,3.25
2023-05-20T17:18:57.877Z,2.88
2023-05-20T17:21:25.250Z,2.78
2023-05-20T17:23:52.419Z,2.30
2023-05-20T17:26:19.611Z,2.63
2023-05-20T17:28:46.773Z,2.97
2023-05-20T17:31:14.157Z,2.80
2023-05-20T17:33:41.374Z,2.70
2023-05-20T17:36:08.657Z,3.25
2023-05-20T17:38:36.218Z,3.20
2023-05-20T17:41:03.792Z,4.03
2023-05-20T17:43:31.341Z,2.83
2023-05-20T17:45:58.633Z,3.13
2023-05-20T17:48:26.590Z,2.88
2023-05-20T17:50:56.756Z,3.33
2023-05-20T17:53:26.941Z,3.05
2023-05-20T17:55:54.397Z,2.78
2023-05-20T17:58:25.000Z,3.17
2023-05-20T18:00:52.753Z,3.28
2023-05-20T18:03:20.559Z,3.97
2023-05-20T18:05:47.963Z,3.15
2023-05-20T18:08:15.129Z,3.47
2023-05-20T18:10:42.644Z,3.20
2023-05-20T18:13:10.119Z,3.35
2023-05-20T18:15:37.482Z,4.07
2023-05-20T18:18:04.970Z,3.22
2023-05-20T18:20:32.460Z,4.80
2023-05-20T18:22:59.630Z,3.33
2023-05-20T18:25:26.924Z,3.28
2023-05-20T18:28:00.075Z,3.50
2023-05-20T18:30:27.461Z,3.58
2023-05-20T18:32:57.707Z,3.28
2023-05-20T18:35:24.877Z,3.70
2023-05-20T18:37:52.065Z,3.97
2023-05-20T18:40:22.159Z,3.28
2023-05-20T18:42:52.456Z,3.90
2023-05-20T18:45:22.780Z,3.10
2023-05-20T18:47:54.567Z,3.53
2023-05-20T18:50:21.921Z,3.03
2023-05-20T18:52:50.107Z,3.10
2023-05-20T18:55:17.370Z,3.58
2023-05-20T18:57:44.703Z,3.55
2023-05-20T19:00:12.715Z,3.33
2023-05-20T19:02:40.868Z,2.80
2023-05-20T19:05:11.429Z,3.10
2023-05-20T19:07:39.202Z,4.03
2023-05-20T19:10:07.099Z,4.07
2023-05-20T19:12:34.273Z,3.35
2023-05-20T19:15:01.666Z,3.88
2023-05-20T19:17:28.935Z,3.92
2023-05-20T19:19:56.338Z,3.88
2023-05-20T19:22:23.520Z,3.70
2023-05-20T19:24:50.920Z,4.50
2023-05-20T19:27:18.231Z,5.38
2023-05-20T19:29:45.280Z,5.32
2023-05-20T19:32:12.474Z,4.30
2023-05-20T19:34:43.329Z,4.28
2023-05-20T19:37:13.420Z,4.40
2023-05-20T19:39:40.845Z,4.60
2023-05-20T19:42:08.236Z,3.97
2023-05-20T19:44:38.780Z,3.85
2023-05-20T19:47:08.491Z,4.18
2023-05-20T19:49:39.925Z,4.55
2023-05-20T19:52:07.684Z,4.30
2023-05-20T19:54:34.906Z,5.53
2023-05-20T19:57:02.238Z,5.05
2023-05-20T19:59:32.243Z,4.95
2023-05-20T20:02:03.483Z,4.78
2023-05-20T20:04:30.750Z,4.28
2023-05-20T20:07:01.106Z,5.38
2023-05-20T20:09:31.478Z,5.90
2023-05-20T20:12:00.463Z,5.53
2023-05-20T20:14:29.610Z,4.50
2023-05-20T20:17:00.056Z,4.55
2023-05-20T20:19:29.918Z,4.40
2023-05-20T20:22:00.350Z,4.60
2023-05-20T20:24:27.574Z,4.90
2023-05-20T20:26:58.389Z,3.90
2023-05-20T20:29:28.522Z,4.35
2023-05-20T20:31:58.529Z,5.03
2023-05-20T20:34:28.910Z,4.35
2023-05-20T20:37:01.711Z,4.63
2023-05-20T20:39:45.541Z,4.90
2023-05-20T20:42:12.743Z,4.25
2023-05-20T20:44:42.876Z,4.45
2023-05-20T20:47:14.976Z,3.85
2023-05-20T20:49:42.321Z,3.63
2023-05-20T20:52:15.060Z,3.85
2023-05-20T20:54:43.349Z,3.97
2023-05-20T20:57:23.255Z,3.90
2023-05-20T20:59:58.000Z,3.45
2023-05-20T21:02:25.281Z,4.30
2023-05-20T21:04:52.463Z,3.33
2023-05-20T21:07:25.751Z,3.92
2023-05-20T21:09:55.804Z,4.10
2023-05-20T21:12:26.537Z,3.75
2023-05-20T21:14:53.676Z,3.65
2023-05-20T21:17:23.993Z,3.95
2023-05-20T21:19:55.000Z,4.40
2023-05-20T21:22:29.260Z,3.90
2023-05-20T21:24:58.802Z,4.10
2023-05-20T21:27:26.185Z,4.40
2023-05-20T21:30:05.212Z,4.85
2023-05-20T21:32:32.565Z,4.70
2023-05-20T21:35:00.939Z,4.07
2023-05-20T21:37:34.277Z,4.15
2023-05-20T21:40:02.146Z,4.10
2023-05-20T21:42:37.153Z,4.03
2023-05-20T21:45:09.458Z,4.78
2023-05-20T21:47:37.045Z,4.63
2023-05-20T21:50:21.334Z,4.40
2023-05-20T21:52:56.396Z,4.15
2023-05-20T21:55:24.063Z,4.45
2023-05-20T21:57:51.443Z,4.28
2023-05-20T22:00:20.820Z,5.00
2023-05-20T22:02:49.120Z,4.80
2023-05-20T22:05:17.399Z,4.55
2023-05-20T22:07:44.930Z,4.25
2023-05-20T22:10:13.886Z,5.00
2023-05-20T22:12:44.666Z,4.65
2023-05-20T22:15:12.657Z,5.63
2023-05-20T22:17:45.250Z,5.60
2023-05-20T22:20:12.968Z,5.68
2023-05-20T22:22:40.175Z,5.30
2023-05-20T22:25:07.718Z,5.10
2023-05-20T22:27:35.251Z,6.22
2023-05-20T22:30:05.288Z,5.38
2023-05-20T22:32:36.196Z,5.43
2023-05-20T22:35:05.057Z,5.25
2023-05-20T22:37:35.577Z,5.95
2023-05-20T22:40:03.954Z,6.68
2023-05-20T22:42:31.212Z,5.68
2023-05-20T22:44:58.679Z,5.70
2023-05-20T22:47:25.849Z,5.00
2023-05-20T22:49:57.967Z,5.93
2023-05-20T22:52:28.289Z,6.28
2023-05-20T22:54:56.977Z,5.32
2023-05-20T22:57:25.558Z,5.68
2023-05-20T22:59:54.095Z,5.43
2023-05-20T23:02:28.068Z,5.53
2023-05-20T23:04:55.277Z,5.63
2023-05-20T23:07:22.652Z,5.63
2023-05-20T23:09:50.020Z,5.07
2023-05-20T23:12:17.392Z,5.38
2023-05-20T23:14:44.688Z,5.22
2023-05-20T23:17:12.041Z,5.25
2023-05-20T23:19:42.031Z,5.43
2023-05-20T23:22:09.325Z,5.95
2023-05-20T23:24:36.914Z,5.10
2023-05-20T23:27:04.694Z,4.78
2023-05-20T23:29:32.341Z,4.72
2023-05-20T23:32:02.912Z,4.97
2023-05-20T23:34:33.596Z,4.88
2023-05-20T23:37:00.791Z,5.00
2023-05-20T23:39:28.443Z,5.32
2023-05-20T23:41:58.847Z,4.88
2023-05-20T23:44:29.394Z,4.82
2023-05-20T23:46:56.660Z,4.43
2023-05-20T23:49:27.334Z,5.05
2023-05-20T23:51:54.660Z,4.57
2023-05-20T23:54:23.163Z,3.83
2023-05-20T23:56:51.754Z,4.28
2023-05-20T23:59:19.226Z,4.13
